Time;durP1;ratioP1;P1;durP2;ratioP2;P2;SDS_P1;SDS_P2;PMS_P1;PMS_P2;Temp;Humidity;BMP_temperature;BMP_pressure;BME280_temperature;BME280_humidity;BME280_pressure;Samples;Min_cycle;Max_cycle;Signal;HPM_P1;HPM_P2
2022/07/11 00:09:50;;;;;;;2.63;1.70;;;;;;;;;;21080450;28;20048;-65
2022/07/11 00:19:51;;;;;;;2.30;1.10;;;;;;;;;;21095011;28;20070;-65
2022/07/11 00:29:53;;;;;;;1.40;1.00;;;;;;;;;;21095773;28;20514;-61
2022/07/11 00:39:55;;;;;;;4.40;1.33;;;;;;;;;;21093735;28;20048;-65
2022/07/11 00:49:56;;;;;;;2.58;1.08;;;;;;;;;;21093158;28;20048;-63
2022/07/11 00:59:58;;;;;;;2.30;1.15;;;;;;;;;;21092428;28;20329;-63
2022/07/11 01:10:00;;;;;;;4.10;1.10;;;;;;;;;;21091208;28;20048;-64
2022/07/11 01:20:01;;;;;;;3.17;1.20;;;;;;;;;;21089088;28;20470;-63
2022/07/11 01:30:05;;;;;;;4.60;1.20;;;;;;;;;;21087117;28;20593;-61
2022/07/11 01:40:07;;;;;;;8.52;2.13;;;;;;;;;;21085190;28;20385;-65
2022/07/11 01:50:09;;;;;;;4.88;2.97;;;;;;;;;;21083227;28;20048;-61
2022/07/11 02:00:11;;;;;;;5.15;2.50;;;;;;;;;;21083808;28;20506;-61
2022/07/11 02:10:12;;;;;;;7.00;1.98;;;;;;;;;;21043105;28;1189483;-60
2022/07/11 02:20:14;;;;;;;5.18;1.60;;;;;;;;;;21085300;28;20047;-61
2022/07/11 02:30:16;;;;;;;3.20;1.80;;;;;;;;;;21084371;28;20055;-61
2022/07/11 02:40:17;;;;;;;4.63;1.65;;;;;;;;;;21083362;28;20133;-62
2022/07/11 02:50:20;;;;;;;4.07;1.75;;;;;;;;;;21083247;28;20074;-63
2022/07/11 03:00:22;;;;;;;2.20;1.40;;;;;;;;;;21082630;28;20055;-66
2022/07/11 03:10:24;;;;;;;5.57;1.75;;;;;;;;;;21081451;28;20135;-66
2022/07/11 03:20:26;;;;;;;2.78;1.48;;;;;;;;;;21080768;28;20048;-66
2022/07/11 03:30:28;;;;;;;3.30;1.58;;;;;;;;;;21080393;28;20098;-63
2022/07/11 03:40:31;;;;;;;4.35;1.58;;;;;;;;;;21080184;28;20047;-66
2022/07/11 03:50:33;;;;;;;3.60;1.55;;;;;;;;;;21079945;28;20485;-65
2022/07/11 04:00:35;;;;;;;3.95;1.70;;;;;;;;;;21080082;28;20097;-66
2022/07/11 04:10:37;;;;;;;6.95;1.67;;;;;;;;;;21078271;28;20059;-66
2022/07/11 04:20:39;;;;;;;6.22;1.90;;;;;;;;;;21078387;28;20099;-67
2022/07/11 04:30:42;;;;;;;2.75;1.80;;;;;;;;;;21077738;28;20110;-66
2022/07/11 04:40:44;;;;;;;5.93;1.88;;;;;;;;;;21077312;28;20480;-67
2022/07/11 04:50:48;;;;;;;5.47;1.70;;;;;;;;;;21077620;28;20044;-67
2022/07/11 05:00:51;;;;;;;6.82;1.88;;;;;;;;;;21086994;28;20468;-63
2022/07/11 05:10:52;;;;;;;6.25;1.90;;;;;;;;;;21090861;28;20083;-63
2022/07/11 05:20:54;;;;;;;4.10;2.05;;;;;;;;;;21090343;28;20083;-65
2022/07/11 05:30:56;;;;;;;5.05;1.85;;;;;;;;;;21090500;28;20048;-64
2022/07/11 05:40:59;;;;;;;2.10;1.63;;;;;;;;;;21089165;28;20127;-65
2022/07/11 05:51:01;;;;;;;3.40;1.85;;;;;;;;;;21087734;28;20051;-64
2022/07/11 06:01:05;;;;;;;7.88;2.00;;;;;;;;;;21088410;28;20468;-63
2022/07/11 06:11:08;;;;;;;6.35;1.85;;;;;;;;;;21084648;28;20052;-63
2022/07/11 06:21:09;;;;;;;3.67;2.00;;;;;;;;;;21085384;28;20102;-66
2022/07/11 06:31:12;;;;;;;4.35;1.90;;;;;;;;;;21086306;28;20507;-62
2022/07/11 06:41:13;;;;;;;3.05;1.63;;;;;;;;;;21083185;28;20135;-66
2022/07/11 06:51:15;;;;;;;3.47;1.70;;;;;;;;;;21082277;28;20130;-61
2022/07/11 07:01:17;;;;;;;4.65;2.25;;;;;;;;;;21082042;28;20052;-65
2022/07/11 07:11:19;;;;;;;4.85;1.77;;;;;;;;;;21080575;28;20127;-63
2022/07/11 07:21:21;;;;;;;4.38;1.80;;;;;;;;;;21081432;28;20131;-66
2022/07/11 07:31:22;;;;;;;3.75;1.58;;;;;;;;;;21081331;28;20079;-65
2022/07/11 07:41:24;;;;;;;3.83;1.58;;;;;;;;;;21079682;28;20087;-64
2022/07/11 07:51:26;;;;;;;2.83;1.52;;;;;;;;;;21079079;28;20063;-66
2022/07/11 08:01:38;;;;;;;10.15;2.00;;;;;;;;;;21080162;28;20393;-66
2022/07/11 08:11:40;;;;;;;5.43;1.80;;;;;;;;;;21078037;28;20048;-64
2022/07/11 08:21:42;;;;;;;8.00;1.98;;;;;;;;;;21078018;28;20142;-68
2022/07/11 08:31:44;;;;;;;6.85;1.95;;;;;;;;;;21082106;28;20044;-62
2022/07/11 08:41:45;;;;;;;6.10;2.35;;;;;;;;;;21094032;28;20095;-63
2022/07/11 08:51:47;;;;;;;9.27;2.28;;;;;;;;;;21092875;28;20048;-65
2022/07/11 09:01:50;;;;;;;5.97;2.03;;;;;;;;;;21093056;28;20052;-66
2022/07/11 09:11:53;;;;;;;7.38;1.90;;;;;;;;;;21090748;28;20059;-66
2022/07/11 09:32:19;;;;;;;4.53;1.98;;;;;;;;;;21089604;28;20056;-64
2022/07/11 09:42:22;;;;;;;2.92;1.70;;;;;;;;;;21089063;28;20044;-67
2022/07/11 09:52:25;;;;;;;6.55;2.38;;;;;;;;;;21088665;28;20546;-66
2022/07/11 10:02:27;;;;;;;12.70;2.33;;;;;;;;;;21079432;28;20048;-61
2022/07/11 10:12:31;;;;;;;3.55;1.77;;;;;;;;;;21086242;28;20496;-66
2022/07/11 10:22:37;;;;;;;5.27;2.27;;;;;;;;;;21085713;28;20131;-61
2022/07/11 10:32:58;;;;;;;3.05;1.92;;;;;;;;;;21083974;28;20048;-61
2022/07/11 10:43:00;;;;;;;13.68;2.63;;;;;;;;;;21084107;28;20048;-61
2022/07/11 10:53:09;;;;;;;4.88;2.17;;;;;;;;;;21082547;28;20087;-65
2022/07/11 11:03:11;;;;;;;3.20;2.33;;;;;;;;;;21082197;28;20055;-64
2022/07/11 11:13:14;;;;;;;4.05;1.98;;;;;;;;;;21080962;28;20435;-68
2022/07/11 11:23:20;;;;;;;5.18;2.35;;;;;;;;;;21083139;28;20048;-63
2022/07/11 11:33:22;;;;;;;4.78;2.30;;;;;;;;;;21114596;28;20134;-68
2022/07/11 11:43:27;;;;;;;10.60;2.57;;;;;;;;;;21162319;28;20055;-74
2022/07/11 11:53:29;;;;;;;6.43;2.20;;;;;;;;;;21162392;28;20822;-68
2022/07/11 12:03:50;;;;;;;6.93;2.70;;;;;;;;;;21129980;28;20193;-64
2022/07/11 12:13:59;;;;;;;4.93;2.53;;;;;;;;;;21121957;28;20047;-63
2022/07/11 12:24:02;;;;;;;5.18;2.80;;;;;;;;;;21174042;28;20447;-63
2022/07/11 12:34:04;;;;;;;8.50;2.97;;;;;;;;;;21178000;28;20051;-62
2022/07/11 12:54:33;;;;;;;12.02;2.70;;;;;;;;;;21178171;28;20547;-62
2022/07/11 13:04:48;;;;;;;9.15;2.67;;;;;;;;;;21179875;28;20052;-63
2022/07/11 13:15:09;;;;;;;3.53;2.80;;;;;;;;;;21178993;28;20484;-63
2022/07/11 13:25:13;;;;;;;6.32;2.40;;;;;;;;;;21175964;28;20507;-64
2022/07/11 13:35:17;;;;;;;7.05;2.55;;;;;;;;;;21175014;28;20152;-61
2022/07/11 13:45:20;;;;;;;6.43;3.45;;;;;;;;;;21173584;28;20067;-63
2022/07/11 13:55:23;;;;;;;3.92;2.97;;;;;;;;;;21172092;28;20051;-63
2022/07/11 14:05:25;;;;;;;7.72;2.78;;;;;;;;;;21170863;28;20048;-62
2022/07/11 14:15:29;;;;;;;5.50;3.17;;;;;;;;;;21170333;28;20087;-64
2022/07/11 14:25:32;;;;;;;9.02;3.15;;;;;;;;;;21169766;28;20043;-65
2022/07/11 14:35:34;;;;;;;4.95;2.67;;;;;;;;;;21167917;28;20047;-64
2022/07/11 14:45:35;;;;;;;4.55;2.08;;;;;;;;;;21168104;28;20063;-62
2022/07/11 14:55:38;;;;;;;3.42;2.72;;;;;;;;;;21167845;28;20048;-62
2022/07/11 15:05:40;;;;;;;6.25;3.13;;;;;;;;;;21166339;28;20050;-63
2022/07/11 15:15:41;;;;;;;4.82;2.13;;;;;;;;;;21166410;28;20060;-61
2022/07/11 15:25:44;;;;;;;8.02;2.40;;;;;;;;;;21166965;28;20066;-63
2022/07/11 15:35:49;;;;;;;3.88;2.50;;;;;;;;;;21164109;28;20055;-63
2022/07/11 15:45:51;;;;;;;4.45;2.75;;;;;;;;;;21163169;28;20047;-63
2022/07/11 15:55:53;;;;;;;3.60;3.10;;;;;;;;;;21163949;28;20056;-62
2022/07/11 16:05:58;;;;;;;3.95;3.05;;;;;;;;;;21164687;28;20048;-61
2022/07/11 16:16:00;;;;;;;4.70;3.20;;;;;;;;;;21165682;28;20079;-60
2022/07/11 16:26:02;;;;;;;6.15;3.17;;;;;;;;;;21166228;28;20051;-61
2022/07/11 16:36:04;;;;;;;4.00;2.90;;;;;;;;;;21162628;28;20047;-62
2022/07/11 16:46:08;;;;;;;4.80;3.28;;;;;;;;;;21161247;28;20051;-61
2022/07/11 16:56:10;;;;;;;5.18;2.65;;;;;;;;;;21170366;28;20054;-62
2022/07/11 17:06:12;;;;;;;3.85;3.00;;;;;;;;;;21176398;27;20521;-62
2022/07/11 17:16:14;;;;;;;8.15;3.47;;;;;;;;;;21175919;28;20100;-62
2022/07/11 17:26:18;;;;;;;3.75;2.83;;;;;;;;;;21156970;28;20048;-61
2022/07/11 17:36:20;;;;;;;6.43;2.58;;;;;;;;;;21174165;28;20051;-61
2022/07/11 17:46:22;;;;;;;8.23;2.33;;;;;;;;;;21173912;28;20426;-61
2022/07/11 17:56:24;;;;;;;5.32;3.00;;;;;;;;;;21173173;28;20047;-61
2022/07/11 18:06:26;;;;;;;9.80;3.25;;;;;;;;;;21172599;28;20419;-61
2022/07/11 18:16:27;;;;;;;6.50;3.33;;;;;;;;;;21173859;28;20051;-61
2022/07/11 18:26:29;;;;;;;7.00;3.17;;;;;;;;;;21175707;28;20047;-60
2022/07/11 18:36:31;;;;;;;9.98;3.15;;;;;;;;;;21175846;28;20058;-61
2022/07/11 18:46:33;;;;;;;11.52;4.03;;;;;;;;;;21172065;28;20048;-60
2022/07/11 18:56:37;;;;;;;5.18;3.47;;;;;;;;;;21150596;28;20506;-61
2022/07/11 19:06:39;;;;;;;5.67;3.03;;;;;;;;;;21168607;28;20051;-63
2022/07/11 19:16:42;;;;;;;7.57;3.45;;;;;;;;;;21166600;28;20051;-62
2022/07/11 19:26:44;;;;;;;4.72;3.70;;;;;;;;;;21170626;28;20055;-62
2022/07/11 19:36:45;;;;;;;6.57;3.70;;;;;;;;;;21167699;28;20062;-61
2022/07/11 19:46:47;;;;;;;6.95;4.72;;;;;;;;;;21164940;28;20043;-62
2022/07/11 20:07:09;;;;;;;4.18;3.70;;;;;;;;;;21163113;28;20055;-62
2022/07/11 20:17:11;;;;;;;5.78;3.88;;;;;;;;;;21162710;28;20411;-62
2022/07/11 20:27:13;;;;;;;6.07;4.50;;;;;;;;;;21165452;28;20055;-61
2022/07/11 20:37:15;;;;;;;8.15;4.30;;;;;;;;;;21178884;28;20055;-61
2022/07/11 20:47:16;;;;;;;6.93;4.93;;;;;;;;;;21178279;28;20047;-61
2022/07/11 20:57:18;;;;;;;6.40;4.38;;;;;;;;;;21177983;28;20105;-62
2022/07/11 21:07:20;;;;;;;8.00;4.82;;;;;;;;;;21176377;28;20047;-61
2022/07/11 21:17:22;;;;;;;7.20;5.28;;;;;;;;;;21176822;28;20131;-63
2022/07/11 21:27:23;;;;;;;4.82;2.78;;;;;;;;;;21174613;28;20054;-63
2022/07/11 21:37:29;;;;;;;7.25;2.85;;;;;;;;;;21174334;28;20051;-61
2022/07/11 21:47:32;;;;;;;10.43;3.72;;;;;;;;;;21174125;28;20471;-63
2022/07/11 21:57:33;;;;;;;10.23;2.33;;;;;;;;;;21173563;28;20134;-61
2022/07/11 22:07:35;;;;;;;8.77;2.22;;;;;;;;;;21172054;28;20056;-62
2022/07/11 22:17:37;;;;;;;8.38;2.25;;;;;;;;;;21171376;28;20506;-61
2022/07/11 22:27:40;;;;;;;11.43;2.17;;;;;;;;;;21171370;28;20404;-62
2022/07/11 22:37:43;;;;;;;9.95;2.55;;;;;;;;;;21169310;28;20086;-61
2022/07/11 22:47:45;;;;;;;3.67;1.30;;;;;;;;;;21168246;28;20414;-60
2022/07/11 22:57:47;;;;;;;5.15;2.35;;;;;;;;;;21167529;28;20055;-63
2022/07/11 23:07:49;;;;;;;5.28;1.67;;;;;;;;;;21166740;28;20159;-62
2022/07/11 23:17:50;;;;;;;5.63;1.45;;;;;;;;;;21167288;28;20188;-61
2022/07/11 23:27:52;;;;;;;2.00;1.50;;;;;;;;;;21167369;28;20081;-62
2022/07/11 23:37:54;;;;;;;4.53;1.30;;;;;;;;;;21166160;28;20058;-63
2022/07/11 23:47:56;;;;;;;4.85;1.20;;;;;;;;;;21165230;28;20043;-62
2022/07/11 23:57:57;;;;;;;6.22;1.40;;;;;;;;;;21165018;28;20456;-62
